Startpagina
METAR-TAF:

METAR-TAF

Vliegvelden :

Kunming, China

Internationale luchthaven Kunming Changshui

breedte: 25-01N, lengte: 102-41E, hoogte: 1892 m

Actueel weer

Dit bericht is 26 minuten geleden gemaakt, om 13:00 UTC
Wind 8 kt uit het zuidzuidwesten
Temperatuur 20°C
Vochtigheid 78%
Druk 1021 hPa
Zicht 10 km of meer
Weinig wolken op 2300 ft

METAR: ZPPP 191300Z 20004MPS 9999 FEW023 20/16 Q1021 NOSIG

Tijdstip: 21:26 (13:26 UTC)

Verwachting

Dit bericht is 6 uur en het 22 minuten geleden gemaakt, om 07:04 UTC
Verwachting geldig van 19 om 12 UTC tot 20 om 12 UTC
Wind 8 kt uit het zuidwesten
Zicht 10 km of meer
Verspreide wolken op 2600 ft
Wijzigt naar
van 20 om 09 UTC tot 20 om 10 UTC
Wind 10 kt uit het noordoosten

TAF: ZPPP 190704Z 1912/2012 22004MPS 9999 SCT026 TX24/2008Z TN16/1923Z BECMG 2009/2010 04005MPS

Waarnemingen en weersverwachtingen van meer dan 4000 vliegvelden (METAR en TAF).

De beschikbare stations zijn de gele en rode punten op de kaart.

Ga met uw muis naar het station om de naam te zien.

Klik dan om waarnemingen en weersverwachtingen te zien.

kaart wijzigen: klik op de groene knoppen met een zwart kruis om in te zoomen, op de groene knop met een streepje om uit te zoomen of op de groene pijlen voor aangrenzende kaarten.


METAR-TAF: